RZO596 LPMA-LPPD
Flight info
| Callsign | RZO596 |
|---|---|
| Flight time | 1h 52m |
| Altitude | 34000 |
| Route | GALOZ DCT IRKID DCT 35N020W DCT ETROX DCT VSM |
| Aircraft | A321/M-SDE3FGHIRWY/LB1 |
Departure
| Time | 2026-05-05 16:39 |
|---|---|
| Airport | Cristiano Ronaldo International Airport (LPMA) |
Arrival
| Time | 2026-05-05 18:31 |
|---|---|
| Airport | João Paulo II Airport (LPPD) |
| Time | Latitude | Longitude | Altitude | Speed | Heading |
|---|---|---|---|---|---|
| 2026-05-05 15:50 | 32.69439 | -16.77554 | 169 ft | 0 kts | 138° |
| 2026-05-05 15:52 | 32.69440 | -16.77554 | 170 ft | 0 kts | 138° |
| 2026-05-05 16:23 | 32.69465 | -16.77582 | 169 ft | 2 kts | 138° |
| 2026-05-05 16:23 | 32.69483 | -16.77597 | 169 ft | 4 kts | 171° |
| 2026-05-05 16:23 | 32.69522 | -16.77568 | 169 ft | 4 kts | 226° |
| 2026-05-05 16:24 | 32.69526 | -16.77563 | 169 ft | 0 kts | 226° |
| 2026-05-05 16:26 | 32.69486 | -16.77613 | 169 ft | 11 kts | 226° |
| 2026-05-05 16:27 | 32.69420 | -16.77695 | 169 ft | 16 kts | 226° |
| 2026-05-05 16:27 | 32.69353 | -16.77778 | 169 ft | 12 kts | 226° |
| 2026-05-05 16:27 | 32.69308 | -16.77833 | 169 ft | 7 kts | 226° |
| 2026-05-05 16:27 | 32.69291 | -16.77866 | 169 ft | 3 kts | 252° |
| 2026-05-05 16:28 | 32.69289 | -16.77876 | 169 ft | 1 kts | 258° |
| 2026-05-05 16:28 | 32.69289 | -16.77881 | 169 ft | 0 kts | 265° |
| 2026-05-05 16:34 | 32.69287 | -16.77911 | 169 ft | 10 kts | 265° |
| 2026-05-05 16:34 | 32.69267 | -16.78049 | 168 ft | 21 kts | 238° |
| 2026-05-05 16:34 | 32.69172 | -16.78167 | 164 ft | 19 kts | 224° |
| 2026-05-05 16:34 | 32.69083 | -16.78271 | 158 ft | 17 kts | 224° |
| 2026-05-05 16:35 | 32.68989 | -16.78377 | 153 ft | 21 kts | 214° |
| 2026-05-05 16:35 | 32.68885 | -16.78445 | 153 ft | 12 kts | 258° |
| 2026-05-05 16:35 | 32.68916 | -16.78462 | 153 ft | 7 kts | 26° |
| 2026-05-05 16:35 | 32.68962 | -16.78410 | 153 ft | 5 kts | 44° |
| 2026-05-05 16:36 | 32.68977 | -16.78393 | 153 ft | 1 kts | 44° |
| 2026-05-05 16:36 | 32.68978 | -16.78392 | 153 ft | 0 kts | 44° |
| 2026-05-05 16:38 | 32.68987 | -16.78382 | 153 ft | 8 kts | 44° |
| 2026-05-05 16:38 | 32.69216 | -16.78115 | 166 ft | 85 kts | 45° |
| 2026-05-05 16:38 | 32.69800 | -16.77432 | 195 ft | 147 kts | 43° |
| 2026-05-05 16:38 | 32.70614 | -16.76496 | 633 ft | 164 kts | 43° |
| 2026-05-05 16:39 | 32.71260 | -16.75394 | 1475 ft | 169 kts | 75° |
| 2026-05-05 16:39 | 32.71190 | -16.74003 | 2281 ft | 179 kts | 105° |
| 2026-05-05 16:39 | 32.70422 | -16.72702 | 2204 ft | 216 kts | 137° |
| 2026-05-05 16:39 | 32.68876 | -16.72084 | 1947 ft | 257 kts | 177° |
| 2026-05-05 16:40 | 32.67146 | -16.72773 | 1944 ft | 273 kts | 214° |
| 2026-05-05 16:40 | 32.65772 | -16.74346 | 2004 ft | 276 kts | 227° |
| 2026-05-05 16:40 | 32.64496 | -16.76048 | 2009 ft | 276 kts | 226° |
| 2026-05-05 16:40 | 32.63095 | -16.77643 | 2611 ft | 274 kts | 213° |
| 2026-05-05 16:41 | 32.61522 | -16.78817 | 4066 ft | 262 kts | 204° |
| 2026-05-05 16:41 | 32.59930 | -16.79858 | 5233 ft | 262 kts | 214° |
| 2026-05-05 16:41 | 32.58754 | -16.81478 | 6250 ft | 264 kts | 248° |
| 2026-05-05 16:41 | 32.58483 | -16.82815 | 6826 ft | 266 kts | 269° |
| 2026-05-05 16:42 | 32.58561 | -16.84933 | 7778 ft | 266 kts | 277° |
| 2026-05-05 16:42 | 32.58794 | -16.87112 | 8764 ft | 268 kts | 279° |
| 2026-05-05 16:42 | 32.59076 | -16.89303 | 9725 ft | 270 kts | 279° |
| 2026-05-05 16:42 | 32.59361 | -16.91510 | 10602 ft | 271 kts | 279° |
| 2026-05-05 16:43 | 32.59633 | -16.93728 | 11457 ft | 273 kts | 278° |
| 2026-05-05 16:43 | 32.59892 | -16.95966 | 12306 ft | 276 kts | 277° |
| 2026-05-05 16:43 | 32.60140 | -16.98225 | 13157 ft | 276 kts | 277° |
| 2026-05-05 16:43 | 32.60379 | -17.00483 | 14052 ft | 276 kts | 277° |
| 2026-05-05 16:44 | 32.60616 | -17.02766 | 14696 ft | 281 kts | 276° |
| 2026-05-05 16:44 | 32.60853 | -17.05070 | 15403 ft | 283 kts | 277° |
| 2026-05-05 16:44 | 32.61168 | -17.07379 | 16059 ft | 286 kts | 284° |
| 2026-05-05 16:44 | 32.61818 | -17.09621 | 16748 ft | 287 kts | 294° |
| 2026-05-05 16:45 | 32.62794 | -17.11692 | 17463 ft | 290 kts | 303° |
| 2026-05-05 16:45 | 32.64087 | -17.13560 | 18019 ft | 296 kts | 313° |
| 2026-05-05 16:45 | 32.65676 | -17.15142 | 18593 ft | 301 kts | 324° |
| 2026-05-05 16:45 | 32.67476 | -17.16439 | 19125 ft | 304 kts | 327° |
| 2026-05-05 16:46 | 32.69307 | -17.17722 | 19632 ft | 306 kts | 326° |
| 2026-05-05 16:46 | 32.71135 | -17.19014 | 20182 ft | 307 kts | 327° |
| 2026-05-05 16:46 | 32.72986 | -17.20332 | 20645 ft | 311 kts | 326° |
| 2026-05-05 16:46 | 32.74849 | -17.21665 | 21153 ft | 314 kts | 326° |
| 2026-05-05 16:47 | 32.76703 | -17.22994 | 21706 ft | 315 kts | 326° |
| 2026-05-05 16:47 | 32.78585 | -17.24339 | 22237 ft | 317 kts | 326° |
| 2026-05-05 16:47 | 32.80486 | -17.25693 | 22722 ft | 320 kts | 326° |
| 2026-05-05 16:47 | 32.82401 | -17.27055 | 23180 ft | 322 kts | 326° |
| 2026-05-05 16:48 | 32.84332 | -17.28429 | 23634 ft | 325 kts | 325° |
| 2026-05-05 16:48 | 32.86282 | -17.29818 | 23983 ft | 328 kts | 325° |
| 2026-05-05 16:48 | 32.88254 | -17.31227 | 24332 ft | 330 kts | 325° |
| 2026-05-05 16:48 | 32.90226 | -17.32638 | 24689 ft | 332 kts | 325° |
| 2026-05-05 16:49 | 32.92220 | -17.34066 | 25014 ft | 335 kts | 325° |
| 2026-05-05 16:49 | 32.94227 | -17.35504 | 25360 ft | 338 kts | 325° |
| 2026-05-05 16:49 | 32.96244 | -17.36950 | 25701 ft | 340 kts | 325° |
| 2026-05-05 16:49 | 32.98280 | -17.38410 | 26030 ft | 343 kts | 324° |
| 2026-05-05 16:50 | 33.00335 | -17.39883 | 26343 ft | 346 kts | 324° |
| 2026-05-05 16:50 | 33.02406 | -17.41366 | 26657 ft | 348 kts | 325° |
| 2026-05-05 16:50 | 33.04489 | -17.42859 | 26960 ft | 351 kts | 324° |
| 2026-05-05 16:50 | 33.06590 | -17.44368 | 27251 ft | 354 kts | 324° |
| 2026-05-05 16:51 | 33.08705 | -17.45889 | 27563 ft | 356 kts | 324° |
| 2026-05-05 16:51 | 33.10829 | -17.47419 | 27866 ft | 358 kts | 324° |
| 2026-05-05 16:51 | 33.12967 | -17.48960 | 28144 ft | 361 kts | 324° |
| 2026-05-05 16:51 | 33.15122 | -17.50516 | 28414 ft | 363 kts | 324° |
| 2026-05-05 16:52 | 33.17286 | -17.52077 | 28724 ft | 365 kts | 324° |
| 2026-05-05 16:52 | 33.19466 | -17.53652 | 29011 ft | 367 kts | 324° |
| 2026-05-05 16:52 | 33.21655 | -17.55235 | 29281 ft | 370 kts | 324° |
| 2026-05-05 16:52 | 33.23860 | -17.56828 | 29559 ft | 371 kts | 324° |
| 2026-05-05 16:53 | 33.26074 | -17.58429 | 29859 ft | 372 kts | 324° |
| 2026-05-05 16:53 | 33.28296 | -17.60036 | 30128 ft | 374 kts | 324° |
| 2026-05-05 16:53 | 33.30531 | -17.61654 | 30332 ft | 377 kts | 324° |
| 2026-05-05 16:53 | 33.32786 | -17.63292 | 30455 ft | 382 kts | 324° |
| 2026-05-05 16:54 | 33.35071 | -17.64954 | 30575 ft | 387 kts | 324° |
| 2026-05-05 16:54 | 33.37384 | -17.66634 | 30700 ft | 391 kts | 324° |
| 2026-05-05 16:54 | 33.39726 | -17.68330 | 30827 ft | 396 kts | 324° |
| 2026-05-05 16:54 | 33.42068 | -17.70028 | 30944 ft | 400 kts | 324° |
| 2026-05-05 16:55 | 33.44468 | -17.71768 | 31087 ft | 405 kts | 324° |
| 2026-05-05 16:55 | 33.46888 | -17.73524 | 31210 ft | 410 kts | 324° |
| 2026-05-05 16:55 | 33.49338 | -17.75305 | 31332 ft | 414 kts | 325° |
| 2026-05-05 16:55 | 33.51816 | -17.77112 | 31460 ft | 418 kts | 325° |
| 2026-05-05 16:56 | 33.54312 | -17.78931 | 31594 ft | 423 kts | 325° |
| 2026-05-05 16:56 | 33.56841 | -17.80777 | 31721 ft | 427 kts | 325° |
| 2026-05-05 16:56 | 33.59386 | -17.82638 | 31848 ft | 431 kts | 325° |
| 2026-05-05 16:56 | 33.61960 | -17.84518 | 31976 ft | 435 kts | 325° |
| 2026-05-05 16:57 | 33.64557 | -17.86412 | 32105 ft | 439 kts | 325° |
| 2026-05-05 16:57 | 33.67172 | -17.88325 | 32255 ft | 442 kts | 325° |
| 2026-05-05 16:57 | 33.69801 | -17.90256 | 32487 ft | 443 kts | 325° |
| 2026-05-05 16:57 | 33.72433 | -17.92187 | 32786 ft | 443 kts | 325° |
| 2026-05-05 16:58 | 33.75068 | -17.94118 | 33104 ft | 443 kts | 325° |
| 2026-05-05 16:58 | 33.77697 | -17.96042 | 33412 ft | 442 kts | 325° |
| 2026-05-05 16:58 | 33.80325 | -17.97964 | 33736 ft | 442 kts | 324° |
| 2026-05-05 16:58 | 33.82952 | -17.99888 | 34037 ft | 441 kts | 324° |
| 2026-05-05 16:59 | 33.85547 | -18.01790 | 34305 ft | 440 kts | 324° |
| 2026-05-05 16:59 | 33.88167 | -18.03715 | 34559 ft | 440 kts | 324° |
| 2026-05-05 16:59 | 33.90712 | -18.05753 | 34818 ft | 436 kts | 317° |
| 2026-05-05 16:59 | 33.92943 | -18.08189 | 35052 ft | 431 kts | 309° |
| 2026-05-05 17:00 | 33.94800 | -18.10944 | 35274 ft | 426 kts | 301° |
| 2026-05-05 17:00 | 33.96495 | -18.13924 | 35522 ft | 426 kts | 301° |
| 2026-05-05 17:00 | 33.98175 | -18.16863 | 35746 ft | 426 kts | 301° |
| 2026-05-05 17:00 | 33.99853 | -18.19797 | 35959 ft | 425 kts | 301° |
| 2026-05-05 17:01 | 34.01509 | -18.22698 | 36132 ft | 427 kts | 301° |
| 2026-05-05 17:01 | 34.03196 | -18.25658 | 36173 ft | 430 kts | 301° |
| 2026-05-05 17:01 | 34.06614 | -18.31676 | 36178 ft | 439 kts | 301° |
| 2026-05-05 17:02 | 34.10088 | -18.37803 | 36198 ft | 445 kts | 301° |
| 2026-05-05 17:02 | 34.13603 | -18.44015 | 36177 ft | 451 kts | 301° |
| 2026-05-05 17:03 | 34.17157 | -18.50300 | 36180 ft | 455 kts | 301° |
| 2026-05-05 17:03 | 34.20721 | -18.56599 | 36576 ft | 449 kts | 301° |
| 2026-05-05 17:04 | 34.22474 | -18.59693 | 36938 ft | 443 kts | 301° |
| 2026-05-05 17:04 | 34.24205 | -18.62745 | 37272 ft | 438 kts | 301° |
| 2026-05-05 17:04 | 34.25919 | -18.65761 | 37624 ft | 432 kts | 301° |
| 2026-05-05 17:04 | 34.27614 | -18.68741 | 37990 ft | 427 kts | 301° |
| 2026-05-05 17:05 | 34.29285 | -18.71675 | 38392 ft | 421 kts | 301° |
| 2026-05-05 17:05 | 34.30939 | -18.74575 | 38778 ft | 415 kts | 301° |
| 2026-05-05 17:05 | 34.32547 | -18.77389 | 39097 ft | 409 kts | 301° |
| 2026-05-05 17:05 | 34.34152 | -18.80194 | 39402 ft | 401 kts | 302° |
| 2026-05-05 17:06 | 34.35728 | -18.82941 | 39708 ft | 394 kts | 302° |
| 2026-05-05 17:06 | 34.37276 | -18.85636 | 40010 ft | 385 kts | 302° |
| 2026-05-05 17:06 | 34.38791 | -18.88265 | 40287 ft | 377 kts | 302° |
| 2026-05-05 17:06 | 34.40277 | -18.90839 | 40518 ft | 369 kts | 302° |
| 2026-05-05 17:07 | 34.43230 | -18.95954 | 40237 ft | 376 kts | 302° |
| 2026-05-05 17:07 | 34.44740 | -18.98575 | 40013 ft | 382 kts | 302° |
| 2026-05-05 17:07 | 34.46247 | -19.01244 | 39742 ft | 390 kts | 300° |
| 2026-05-05 17:08 | 34.47711 | -19.04098 | 38743 ft | 409 kts | 298° |
| 2026-05-05 17:08 | 34.49213 | -19.07134 | 37298 ft | 428 kts | 298° |
| 2026-05-05 17:08 | 34.50772 | -19.10217 | 36641 ft | 428 kts | 299° |
| 2026-05-05 17:08 | 34.52361 | -19.13234 | 36370 ft | 422 kts | 300° |
| 2026-05-05 17:09 | 34.53981 | -19.16200 | 36179 ft | 422 kts | 301° |
| 2026-05-05 17:09 | 34.55625 | -19.19146 | 36206 ft | 423 kts | 301° |
| 2026-05-05 17:09 | 34.58948 | -19.25056 | 36204 ft | 424 kts | 301° |
| 2026-05-05 17:10 | 34.62246 | -19.30970 | 36199 ft | 419 kts | 301° |
| 2026-05-05 17:10 | 34.63844 | -19.33859 | 36198 ft | 405 kts | 301° |
| 2026-05-05 17:10 | 34.65398 | -19.36679 | 36204 ft | 400 kts | 300° |
| 2026-05-05 17:11 | 34.68477 | -19.42286 | 36207 ft | 398 kts | 301° |
| 2026-05-05 17:11 | 34.71555 | -19.47886 | 36204 ft | 398 kts | 301° |
| 2026-05-05 17:12 | 34.74627 | -19.53487 | 36209 ft | 398 kts | 301° |
| 2026-05-05 17:12 | 34.77684 | -19.59064 | 36213 ft | 398 kts | 301° |
| 2026-05-05 17:13 | 34.80761 | -19.64667 | 36212 ft | 398 kts | 301° |
| 2026-05-05 17:13 | 34.83832 | -19.70281 | 36219 ft | 398 kts | 301° |
| 2026-05-05 17:14 | 34.86901 | -19.75904 | 36231 ft | 398 kts | 302° |
| 2026-05-05 17:14 | 34.89968 | -19.81533 | 36217 ft | 399 kts | 302° |
| 2026-05-05 17:15 | 34.93041 | -19.87167 | 36215 ft | 399 kts | 302° |
| 2026-05-05 17:15 | 34.96113 | -19.92824 | 36216 ft | 400 kts | 302° |
| 2026-05-05 17:16 | 34.98658 | -19.97530 | 36225 ft | 400 kts | 302° |
| 2026-05-05 17:16 | 35.01667 | -20.04486 | 36225 ft | 399 kts | 294° |
| 2026-05-05 17:17 | 35.03953 | -20.10659 | 36239 ft | 399 kts | 295° |
| 2026-05-05 17:17 | 35.06241 | -20.16840 | 36223 ft | 400 kts | 295° |
| 2026-05-05 17:18 | 35.08141 | -20.21991 | 36231 ft | 402 kts | 295° |
| 2026-05-05 17:18 | 35.10469 | -20.28289 | 36236 ft | 412 kts | 295° |
| 2026-05-05 17:19 | 35.12849 | -20.34744 | 36237 ft | 421 kts | 295° |
| 2026-05-05 17:19 | 35.15258 | -20.41325 | 36236 ft | 425 kts | 295° |
| 2026-05-05 17:20 | 35.17671 | -20.47932 | 36224 ft | 426 kts | 295° |
| 2026-05-05 17:20 | 35.20094 | -20.54545 | 36250 ft | 426 kts | 296° |
| 2026-05-05 17:21 | 35.22512 | -20.61174 | 36242 ft | 427 kts | 296° |
| 2026-05-05 17:22 | 35.26137 | -20.71139 | 36244 ft | 427 kts | 296° |
| 2026-05-05 17:22 | 35.28538 | -20.77764 | 36234 ft | 419 kts | 296° |
| 2026-05-05 17:22 | 35.29697 | -20.80968 | 36221 ft | 406 kts | 296° |
| 2026-05-05 17:23 | 35.30833 | -20.84118 | 36245 ft | 404 kts | 297° |
| 2026-05-05 17:23 | 35.33101 | -20.90405 | 36244 ft | 403 kts | 297° |
| 2026-05-05 17:24 | 35.35372 | -20.96684 | 36247 ft | 403 kts | 297° |
| 2026-05-05 17:24 | 35.37640 | -21.02977 | 36249 ft | 404 kts | 298° |
| 2026-05-05 17:25 | 35.39887 | -21.09239 | 36248 ft | 404 kts | 298° |
| 2026-05-05 17:25 | 35.42150 | -21.15538 | 36241 ft | 404 kts | 298° |
| 2026-05-05 17:26 | 35.44405 | -21.21845 | 36241 ft | 404 kts | 299° |
| 2026-05-05 17:26 | 35.46659 | -21.28170 | 36246 ft | 404 kts | 299° |
| 2026-05-05 17:27 | 35.48919 | -21.34496 | 36254 ft | 404 kts | 299° |
| 2026-05-05 17:27 | 35.51175 | -21.40826 | 36257 ft | 405 kts | 298° |
| 2026-05-05 17:28 | 35.53422 | -21.47154 | 36238 ft | 405 kts | 300° |
| 2026-05-05 17:28 | 35.55666 | -21.53490 | 36247 ft | 405 kts | 300° |
| 2026-05-05 17:29 | 35.57892 | -21.59797 | 36252 ft | 405 kts | 300° |
| 2026-05-05 17:29 | 35.60125 | -21.66146 | 36256 ft | 405 kts | 300° |
| 2026-05-05 17:30 | 35.62361 | -21.72497 | 36266 ft | 405 kts | 301° |
| 2026-05-05 17:30 | 35.64598 | -21.78850 | 36269 ft | 405 kts | 300° |
| 2026-05-05 17:31 | 35.66827 | -21.85206 | 36247 ft | 405 kts | 301° |
| 2026-05-05 17:31 | 35.69057 | -21.91574 | 36256 ft | 405 kts | 301° |
| 2026-05-05 17:32 | 35.71278 | -21.97943 | 36261 ft | 405 kts | 301° |
| 2026-05-05 17:32 | 35.73493 | -22.04324 | 36271 ft | 405 kts | 301° |
| 2026-05-05 17:33 | 35.75699 | -22.10676 | 36271 ft | 405 kts | 301° |
| 2026-05-05 17:33 | 35.77919 | -22.17056 | 36272 ft | 405 kts | 301° |
| 2026-05-05 17:34 | 35.80132 | -22.23442 | 36281 ft | 405 kts | 301° |
| 2026-05-05 17:34 | 35.82345 | -22.29845 | 36278 ft | 405 kts | 301° |
| 2026-05-05 17:35 | 35.84549 | -22.36234 | 36284 ft | 405 kts | 301° |
| 2026-05-05 17:35 | 35.86748 | -22.42621 | 36292 ft | 404 kts | 301° |
| 2026-05-05 17:36 | 35.88941 | -22.49001 | 36270 ft | 404 kts | 301° |
| 2026-05-05 17:36 | 35.91125 | -22.55387 | 36279 ft | 404 kts | 301° |
| 2026-05-05 17:37 | 35.93305 | -22.61780 | 36284 ft | 404 kts | 301° |
| 2026-05-05 17:37 | 35.95469 | -22.68128 | 36286 ft | 404 kts | 301° |
| 2026-05-05 17:38 | 35.97654 | -22.74515 | 36303 ft | 403 kts | 301° |
| 2026-05-05 17:38 | 35.99820 | -22.80903 | 36287 ft | 403 kts | 301° |
| 2026-05-05 17:39 | 36.01981 | -22.87281 | 36285 ft | 402 kts | 301° |
| 2026-05-05 17:39 | 36.04136 | -22.93648 | 36293 ft | 401 kts | 301° |
| 2026-05-05 17:40 | 36.06289 | -23.00012 | 36301 ft | 401 kts | 301° |
| 2026-05-05 17:40 | 36.08432 | -23.06387 | 36300 ft | 401 kts | 301° |
| 2026-05-05 17:41 | 36.10573 | -23.12749 | 36279 ft | 401 kts | 301° |
| 2026-05-05 17:41 | 36.12718 | -23.19111 | 36284 ft | 401 kts | 301° |
| 2026-05-05 17:42 | 36.14844 | -23.25455 | 36291 ft | 401 kts | 300° |
| 2026-05-05 17:42 | 36.16960 | -23.31842 | 36296 ft | 401 kts | 300° |
| 2026-05-05 17:43 | 36.19085 | -23.38217 | 36298 ft | 400 kts | 300° |
| 2026-05-05 17:43 | 36.21214 | -23.44591 | 36275 ft | 401 kts | 300° |
| 2026-05-05 17:44 | 36.23333 | -23.50976 | 36289 ft | 400 kts | 300° |
| 2026-05-05 17:44 | 36.25455 | -23.57364 | 36305 ft | 400 kts | 300° |
| 2026-05-05 17:45 | 36.27561 | -23.63740 | 36307 ft | 399 kts | 300° |
| 2026-05-05 17:45 | 36.29657 | -23.70114 | 36305 ft | 399 kts | 300° |
| 2026-05-05 17:46 | 36.31752 | -23.76474 | 36288 ft | 398 kts | 300° |
| 2026-05-05 17:46 | 36.33849 | -23.82832 | 36294 ft | 398 kts | 300° |
| 2026-05-05 17:47 | 36.35920 | -23.89152 | 36298 ft | 398 kts | 300° |
| 2026-05-05 17:47 | 36.37999 | -23.95523 | 36303 ft | 398 kts | 300° |
| 2026-05-05 17:48 | 36.40098 | -24.01870 | 36310 ft | 395 kts | 303° |
| 2026-05-05 17:48 | 36.42856 | -24.07651 | 36301 ft | 388 kts | 309° |
| 2026-05-05 17:49 | 36.45700 | -24.13353 | 36306 ft | 387 kts | 309° |
| 2026-05-05 17:49 | 36.48512 | -24.19018 | 36310 ft | 387 kts | 309° |
| 2026-05-05 17:50 | 36.51352 | -24.24748 | 36310 ft | 387 kts | 309° |
| 2026-05-05 17:50 | 36.54162 | -24.30414 | 36312 ft | 387 kts | 309° |
| 2026-05-05 17:51 | 36.56983 | -24.36111 | 36322 ft | 387 kts | 309° |
| 2026-05-05 17:51 | 36.59798 | -24.41809 | 36305 ft | 386 kts | 309° |
| 2026-05-05 17:52 | 36.62602 | -24.47508 | 36310 ft | 386 kts | 309° |
| 2026-05-05 17:52 | 36.65441 | -24.53276 | 36315 ft | 396 kts | 309° |
| 2026-05-05 17:52 | 36.66893 | -24.56222 | 36205 ft | 403 kts | 309° |
| 2026-05-05 17:53 | 36.68369 | -24.59216 | 36029 ft | 407 kts | 308° |
| 2026-05-05 17:53 | 36.69848 | -24.62233 | 35855 ft | 409 kts | 308° |
| 2026-05-05 17:53 | 36.71330 | -24.65261 | 35685 ft | 409 kts | 308° |
| 2026-05-05 17:53 | 36.72811 | -24.68294 | 35514 ft | 410 kts | 308° |
| 2026-05-05 17:54 | 36.74293 | -24.71326 | 35323 ft | 410 kts | 308° |
| 2026-05-05 17:54 | 36.75777 | -24.74361 | 35153 ft | 410 kts | 308° |
| 2026-05-05 17:54 | 36.77262 | -24.77402 | 34987 ft | 410 kts | 308° |
| 2026-05-05 17:54 | 36.78747 | -24.80444 | 34822 ft | 411 kts | 308° |
| 2026-05-05 17:55 | 36.80236 | -24.83494 | 34641 ft | 412 kts | 308° |
| 2026-05-05 17:55 | 36.81674 | -24.86442 | 34423 ft | 412 kts | 307° |
| 2026-05-05 17:55 | 36.83163 | -24.89498 | 34170 ft | 413 kts | 307° |
| 2026-05-05 17:56 | 36.84656 | -24.92571 | 33643 ft | 415 kts | 307° |
| 2026-05-05 17:56 | 36.86135 | -24.95623 | 33065 ft | 415 kts | 307° |
| 2026-05-05 17:56 | 36.87629 | -24.98710 | 32507 ft | 416 kts | 307° |
| 2026-05-05 17:56 | 36.89127 | -25.01804 | 31956 ft | 417 kts | 307° |
| 2026-05-05 17:57 | 36.90635 | -25.04916 | 31374 ft | 419 kts | 307° |
| 2026-05-05 17:57 | 36.92142 | -25.08030 | 30851 ft | 418 kts | 307° |
| 2026-05-05 17:57 | 36.93640 | -25.11134 | 30321 ft | 416 kts | 306° |
| 2026-05-05 17:57 | 36.95132 | -25.14227 | 29703 ft | 414 kts | 306° |
| 2026-05-05 17:58 | 36.96710 | -25.17209 | 29097 ft | 406 kts | 314° |
| 2026-05-05 17:58 | 36.98543 | -25.19857 | 28517 ft | 402 kts | 316° |
| 2026-05-05 17:58 | 37.00390 | -25.22483 | 27936 ft | 400 kts | 316° |
| 2026-05-05 17:58 | 37.02221 | -25.25086 | 27373 ft | 397 kts | 316° |
| 2026-05-05 17:59 | 37.04040 | -25.27671 | 26833 ft | 395 kts | 315° |
| 2026-05-05 17:59 | 37.05850 | -25.30247 | 26294 ft | 393 kts | 315° |
| 2026-05-05 17:59 | 37.07647 | -25.32809 | 25760 ft | 391 kts | 315° |
| 2026-05-05 17:59 | 37.09436 | -25.35366 | 25237 ft | 389 kts | 315° |
| 2026-05-05 18:00 | 37.11209 | -25.37909 | 24730 ft | 387 kts | 315° |
| 2026-05-05 18:00 | 37.12976 | -25.40445 | 24222 ft | 385 kts | 315° |
| 2026-05-05 18:00 | 37.14715 | -25.42939 | 23698 ft | 384 kts | 315° |
| 2026-05-05 18:00 | 37.16467 | -25.45452 | 23107 ft | 382 kts | 315° |
| 2026-05-05 18:01 | 37.18211 | -25.47951 | 22529 ft | 380 kts | 315° |
| 2026-05-05 18:01 | 37.19946 | -25.50440 | 21958 ft | 377 kts | 315° |
| 2026-05-05 18:01 | 37.21665 | -25.52904 | 21403 ft | 375 kts | 314° |
| 2026-05-05 18:01 | 37.23382 | -25.55372 | 20852 ft | 372 kts | 314° |
| 2026-05-05 18:02 | 37.25076 | -25.57810 | 20321 ft | 370 kts | 314° |
| 2026-05-05 18:02 | 37.26130 | -25.59328 | 19983 ft | 369 kts | 314° |
| 2026-05-05 18:02 | 37.27714 | -25.61613 | 19490 ft | 367 kts | 314° |
| 2026-05-05 18:02 | 37.29037 | -25.63521 | 19082 ft | 366 kts | 314° |
| 2026-05-05 18:03 | 37.30337 | -25.65397 | 18676 ft | 365 kts | 313° |
| 2026-05-05 18:03 | 37.32000 | -25.67795 | 18086 ft | 364 kts | 313° |
| 2026-05-05 18:03 | 37.33661 | -25.70191 | 17512 ft | 363 kts | 313° |
| 2026-05-05 18:03 | 37.35313 | -25.72580 | 16943 ft | 362 kts | 313° |
| 2026-05-05 18:04 | 37.36401 | -25.74156 | 16573 ft | 361 kts | 313° |
| 2026-05-05 18:04 | 37.38045 | -25.76540 | 16025 ft | 360 kts | 313° |
| 2026-05-05 18:04 | 37.39734 | -25.78855 | 15477 ft | 357 kts | 321° |
| 2026-05-05 18:04 | 37.41805 | -25.80498 | 14931 ft | 351 kts | 339° |
| 2026-05-05 18:05 | 37.44162 | -25.81159 | 14416 ft | 344 kts | 359° |
| 2026-05-05 18:05 | 37.46522 | -25.81015 | 13874 ft | 336 kts | 5° |
| 2026-05-05 18:05 | 37.48765 | -25.80367 | 13299 ft | 328 kts | 26° |
| 2026-05-05 18:05 | 37.50480 | -25.78551 | 12817 ft | 322 kts | 53° |
| 2026-05-05 18:06 | 37.51508 | -25.76081 | 12465 ft | 317 kts | 62° |
| 2026-05-05 18:06 | 37.52121 | -25.74418 | 12238 ft | 315 kts | 62° |
| 2026-05-05 18:06 | 37.52833 | -25.72450 | 11933 ft | 312 kts | 62° |
| 2026-05-05 18:06 | 37.53722 | -25.69965 | 11399 ft | 309 kts | 62° |
| 2026-05-05 18:07 | 37.54590 | -25.67526 | 10848 ft | 302 kts | 63° |
| 2026-05-05 18:07 | 37.55441 | -25.65146 | 10301 ft | 294 kts | 62° |
| 2026-05-05 18:07 | 37.56276 | -25.62829 | 9708 ft | 286 kts | 62° |
| 2026-05-05 18:07 | 37.56782 | -25.61425 | 9342 ft | 282 kts | 62° |
| 2026-05-05 18:08 | 37.57582 | -25.59200 | 8729 ft | 277 kts | 63° |
| 2026-05-05 18:08 | 37.58369 | -25.57014 | 8065 ft | 271 kts | 63° |
| 2026-05-05 18:08 | 37.59137 | -25.54868 | 7393 ft | 266 kts | 63° |
| 2026-05-05 18:08 | 37.59868 | -25.52745 | 6737 ft | 262 kts | 70° |
| 2026-05-05 18:09 | 37.60016 | -25.50478 | 6041 ft | 263 kts | 97° |
| 2026-05-05 18:09 | 37.59609 | -25.48263 | 5364 ft | 262 kts | 103° |
| 2026-05-05 18:09 | 37.59128 | -25.46055 | 4698 ft | 259 kts | 102° |
| 2026-05-05 18:09 | 37.59050 | -25.43870 | 4490 ft | 242 kts | 73° |
| 2026-05-05 18:10 | 37.59761 | -25.42032 | 4494 ft | 231 kts | 47° |
| 2026-05-05 18:10 | 37.61037 | -25.40849 | 4497 ft | 230 kts | 21° |
| 2026-05-05 18:10 | 37.62610 | -25.40553 | 4499 ft | 232 kts | 354° |
| 2026-05-05 18:10 | 37.64105 | -25.41209 | 4520 ft | 224 kts | 328° |
| 2026-05-05 18:11 | 37.65212 | -25.42538 | 4499 ft | 218 kts | 316° |
| 2026-05-05 18:11 | 37.66069 | -25.44113 | 4319 ft | 218 kts | 299° |
| 2026-05-05 18:11 | 37.66637 | -25.45839 | 4039 ft | 208 kts | 294° |
| 2026-05-05 18:11 | 37.67148 | -25.47485 | 3792 ft | 194 kts | 294° |
| 2026-05-05 18:12 | 37.67632 | -25.49020 | 3522 ft | 182 kts | 296° |
| 2026-05-05 18:12 | 37.68088 | -25.50461 | 3273 ft | 173 kts | 295° |
| 2026-05-05 18:12 | 37.68531 | -25.51854 | 3054 ft | 169 kts | 296° |
| 2026-05-05 18:12 | 37.68856 | -25.52880 | 2891 ft | 160 kts | 298° |
| 2026-05-05 18:13 | 37.69204 | -25.53975 | 2699 ft | 156 kts | 298° |
| 2026-05-05 18:13 | 37.69610 | -25.55235 | 2470 ft | 154 kts | 298° |
| 2026-05-05 18:13 | 37.70013 | -25.56477 | 2264 ft | 152 kts | 298° |
| 2026-05-05 18:13 | 37.70393 | -25.57723 | 2063 ft | 152 kts | 297° |
| 2026-05-05 18:14 | 37.70792 | -25.58962 | 1848 ft | 153 kts | 297° |
| 2026-05-05 18:14 | 37.71187 | -25.60220 | 1651 ft | 154 kts | 296° |
| 2026-05-05 18:14 | 37.71579 | -25.61462 | 1462 ft | 151 kts | 297° |
| 2026-05-05 18:14 | 37.71965 | -25.62681 | 1231 ft | 149 kts | 295° |
| 2026-05-05 18:15 | 37.72348 | -25.63895 | 1049 ft | 148 kts | 297° |
| 2026-05-05 18:15 | 37.72727 | -25.65100 | 831 ft | 148 kts | 296° |
| 2026-05-05 18:15 | 37.73103 | -25.66297 | 627 ft | 148 kts | 298° |
| 2026-05-05 18:15 | 37.73486 | -25.67511 | 452 ft | 149 kts | 298° |
| 2026-05-05 18:16 | 37.73864 | -25.68718 | 243 ft | 146 kts | 297° |
| 2026-05-05 18:16 | 37.74247 | -25.69835 | 268 ft | 135 kts | 300° |
| 2026-05-05 18:16 | 37.74560 | -25.70944 | 970 ft | 135 kts | 292° |
| 2026-05-05 18:16 | 37.74841 | -25.72104 | 1623 ft | 143 kts | 292° |
| 2026-05-05 18:17 | 37.75157 | -25.73319 | 2332 ft | 149 kts | 286° |
| 2026-05-05 18:17 | 37.74966 | -25.74630 | 3061 ft | 159 kts | 245° |
| 2026-05-05 18:17 | 37.74360 | -25.75827 | 3623 ft | 166 kts | 235° |
| 2026-05-05 18:17 | 37.73420 | -25.76774 | 3766 ft | 180 kts | 206° |
| 2026-05-05 18:18 | 37.72229 | -25.77425 | 3914 ft | 195 kts | 200° |
| 2026-05-05 18:18 | 37.70911 | -25.78027 | 4055 ft | 207 kts | 198° |
| 2026-05-05 18:18 | 37.69510 | -25.78657 | 4196 ft | 221 kts | 198° |
| 2026-05-05 18:18 | 37.67994 | -25.79330 | 4333 ft | 241 kts | 198° |
| 2026-05-05 18:19 | 37.66386 | -25.80036 | 4813 ft | 246 kts | 197° |
| 2026-05-05 18:19 | 37.64696 | -25.80453 | 4986 ft | 247 kts | 185° |
| 2026-05-05 18:19 | 37.63003 | -25.80632 | 5013 ft | 246 kts | 180° |
| 2026-05-05 18:19 | 37.61291 | -25.80675 | 5000 ft | 246 kts | 178° |
| 2026-05-05 18:20 | 37.59577 | -25.80698 | 5006 ft | 246 kts | 178° |
| 2026-05-05 18:20 | 37.57874 | -25.80621 | 5008 ft | 243 kts | 166° |
| 2026-05-05 18:20 | 37.56353 | -25.79788 | 4983 ft | 237 kts | 138° |
| 2026-05-05 18:20 | 37.55280 | -25.78217 | 5015 ft | 247 kts | 114° |
| 2026-05-05 18:21 | 37.54844 | -25.76089 | 5014 ft | 254 kts | 86° |
| 2026-05-05 18:21 | 37.55204 | -25.73937 | 5003 ft | 254 kts | 68° |
| 2026-05-05 18:21 | 37.55798 | -25.71830 | 5001 ft | 256 kts | 69° |
| 2026-05-05 18:21 | 37.56389 | -25.69710 | 5008 ft | 255 kts | 68° |
| 2026-05-05 18:22 | 37.56971 | -25.67616 | 5002 ft | 254 kts | 69° |
| 2026-05-05 18:22 | 37.57460 | -25.65848 | 5010 ft | 256 kts | 69° |
| 2026-05-05 18:23 | 37.57615 | -25.65273 | 4991 ft | 257 kts | 70° |
| 2026-05-05 18:23 | 37.58103 | -25.63459 | 5003 ft | 256 kts | 70° |
| 2026-05-05 18:23 | 37.58559 | -25.61898 | 5003 ft | 255 kts | 68° |
| 2026-05-05 18:24 | 37.59153 | -25.59783 | 5004 ft | 257 kts | 69° |
| 2026-05-05 18:24 | 37.59532 | -25.57575 | 5003 ft | 261 kts | 89° |
| 2026-05-05 18:24 | 37.59304 | -25.55290 | 4873 ft | 263 kts | 97° |
| 2026-05-05 18:24 | 37.58964 | -25.53027 | 4709 ft | 262 kts | 98° |
| 2026-05-05 18:25 | 37.58834 | -25.52134 | 4652 ft | 262 kts | 98° |
| 2026-05-05 18:25 | 37.58613 | -25.50608 | 4572 ft | 262 kts | 98° |
| 2026-05-05 18:25 | 37.58672 | -25.47634 | 4496 ft | 256 kts | 70° |
| 2026-05-05 18:25 | 37.59521 | -25.45688 | 4499 ft | 253 kts | 47° |
| 2026-05-05 18:26 | 37.60921 | -25.44372 | 4500 ft | 253 kts | 23° |
| 2026-05-05 18:26 | 37.62625 | -25.43870 | 4504 ft | 253 kts | 6° |
| 2026-05-05 18:26 | 37.64353 | -25.43767 | 4489 ft | 243 kts | 352° |
| 2026-05-05 18:26 | 37.65841 | -25.44593 | 4517 ft | 228 kts | 322° |
| 2026-05-05 18:27 | 37.66764 | -25.46179 | 4196 ft | 227 kts | 297° |
| 2026-05-05 18:27 | 37.67354 | -25.48025 | 3705 ft | 224 kts | 293° |
| 2026-05-05 18:27 | 37.67891 | -25.49806 | 3393 ft | 211 kts | 294° |
| 2026-05-05 18:27 | 37.68414 | -25.51482 | 3128 ft | 198 kts | 295° |
| 2026-05-05 18:28 | 37.69363 | -25.54482 | 2627 ft | 167 kts | 297° |
| 2026-05-05 18:28 | 37.69780 | -25.55797 | 2398 ft | 157 kts | 296° |
| 2026-05-05 18:28 | 37.70181 | -25.57060 | 2193 ft | 153 kts | 298° |
| 2026-05-05 18:29 | 37.70572 | -25.58299 | 1974 ft | 152 kts | 297° |
| 2026-05-05 18:29 | 37.70963 | -25.59533 | 1763 ft | 151 kts | 298° |
| 2026-05-05 18:29 | 37.71360 | -25.60776 | 1551 ft | 154 kts | 296° |
| 2026-05-05 18:29 | 37.71754 | -25.62025 | 1395 ft | 151 kts | 297° |
| 2026-05-05 18:30 | 37.72141 | -25.63250 | 1126 ft | 149 kts | 296° |
| 2026-05-05 18:30 | 37.72523 | -25.64457 | 963 ft | 147 kts | 298° |
| 2026-05-05 18:30 | 37.72900 | -25.65655 | 768 ft | 146 kts | 297° |
| 2026-05-05 18:30 | 37.73279 | -25.66854 | 537 ft | 147 kts | 298° |
| 2026-05-05 18:31 | 37.73660 | -25.68058 | 370 ft | 148 kts | 297° |
| 2026-05-05 18:31 | 37.74041 | -25.69250 | 216 ft | 138 kts | 291° |
| 2026-05-05 18:31 | 37.74303 | -25.70095 | 241 ft | 68 kts | 292° |
| 2026-05-05 18:31 | 37.74431 | -25.70495 | 259 ft | 37 kts | 292° |
| 2026-05-05 18:32 | 37.74519 | -25.70773 | 268 ft | 27 kts | 292° |
| 2026-05-05 18:32 | 37.74593 | -25.70847 | 271 ft | 10 kts | 12° |
| 2026-05-05 18:32 | 37.74661 | -25.70826 | 271 ft | 10 kts | 1° |
| 2026-05-05 18:32 | 37.74709 | -25.70864 | 271 ft | 8 kts | 306° |
| 2026-05-05 18:33 | 37.74740 | -25.70919 | 271 ft | 8 kts | 302° |
| 2026-05-05 18:33 | 37.74769 | -25.71004 | 271 ft | 11 kts | 291° |
| 2026-05-05 18:33 | 37.74786 | -25.71059 | 274 ft | 2 kts | 291° |
| 2026-05-05 18:33 | 37.74787 | -25.71064 | 273 ft | 0 kts | 291° |
| 2026-05-05 18:34 | 37.74791 | -25.71076 | 271 ft | 0 kts | 291° |
| 2026-05-05 18:35 | 37.74809 | -25.71087 | 271 ft | 3 kts | 6° |
| 2026-05-05 18:35 | 37.74832 | -25.71072 | 271 ft | 4 kts | 22° |
| 2026-05-05 18:35 | 37.74853 | -25.71060 | 271 ft | 3 kts | 22° |
| 2026-05-05 18:35 | 37.74859 | -25.71057 | 271 ft | 0 kts | 22° |